sensor_id;sensor_type;location;lat;lon;timestamp;temperature;humidity
15625;DHT22;7912;51.376;6.126;2023-07-13T00:09:16;19.40;95.90
15625;DHT22;7912;51.376;6.126;2023-07-13T00:15:40;19.30;96.00
15625;DHT22;7912;51.376;6.126;2023-07-13T00:18:07;19.30;96.30
15625;DHT22;7912;51.376;6.126;2023-07-13T00:20:35;19.30;96.10
15625;DHT22;7912;51.376;6.126;2023-07-13T00:23:02;19.20;96.20
15625;DHT22;7912;51.376;6.126;2023-07-13T00:25:30;19.20;96.40
15625;DHT22;7912;51.376;6.126;2023-07-13T00:27:57;19.20;96.60
15625;DHT22;7912;51.376;6.126;2023-07-13T00:30:25;19.20;96.70
15625;DHT22;7912;51.376;6.126;2023-07-13T00:32:55;19.10;96.80
15625;DHT22;7912;51.376;6.126;2023-07-13T00:35:42;19.20;97.00
15625;DHT22;7912;51.376;6.126;2023-07-13T00:38:11;19.10;97.00
15625;DHT22;7912;51.376;6.126;2023-07-13T00:40:39;19.10;97.10
15625;DHT22;7912;51.376;6.126;2023-07-13T00:43:18;19.10;97.20
15625;DHT22;7912;51.376;6.126;2023-07-13T00:48:24;19.10;97.50
15625;DHT22;7912;51.376;6.126;2023-07-13T00:50:56;19.10;98.20
15625;DHT22;7912;51.376;6.126;2023-07-13T00:53:28;19.00;98.00
15625;DHT22;7912;51.376;6.126;2023-07-13T00:55:58;19.00;98.00
15625;DHT22;7912;51.376;6.126;2023-07-13T00:58:27;19.00;98.10
15625;DHT22;7912;51.376;6.126;2023-07-13T01:00:55;19.00;98.30
15625;DHT22;7912;51.376;6.126;2023-07-13T01:03:23;19.00;98.40
15625;DHT22;7912;51.376;6.126;2023-07-13T01:05:50;19.00;98.60
15625;DHT22;7912;51.376;6.126;2023-07-13T01:08:21;18.90;98.70
15625;DHT22;7912;51.376;6.126;2023-07-13T01:10:57;18.90;99.00
15625;DHT22;7912;51.376;6.126;2023-07-13T01:13:25;18.90;99.40
15625;DHT22;7912;51.376;6.126;2023-07-13T01:15:55;18.90;99.20
15625;DHT22;7912;51.376;6.126;2023-07-13T01:18:27;18.90;99.50
15625;DHT22;7912;51.376;6.126;2023-07-13T01:20:57;18.80;99.50
15625;DHT22;7912;51.376;6.126;2023-07-13T01:23:27;18.80;99.70
15625;DHT22;7912;51.376;6.126;2023-07-13T01:25:55;18.80;99.80
15625;DHT22;7912;51.376;6.126;2023-07-13T01:28:25;18.80;99.90
15625;DHT22;7912;51.376;6.126;2023-07-13T01:30:57;18.80;99.90
15625;DHT22;7912;51.376;6.126;2023-07-13T01:33:26;18.70;99.90
15625;DHT22;7912;51.376;6.126;2023-07-13T01:35:53;18.70;99.90
15625;DHT22;7912;51.376;6.126;2023-07-13T01:38:24;18.70;99.90
15625;DHT22;7912;51.376;6.126;2023-07-13T01:40:52;18.70;99.90
15625;DHT22;7912;51.376;6.126;2023-07-13T01:43:22;18.60;99.90
15625;DHT22;7912;51.376;6.126;2023-07-13T01:45:49;18.60;99.90
15625;DHT22;7912;51.376;6.126;2023-07-13T01:48:26;18.60;99.90
15625;DHT22;7912;51.376;6.126;2023-07-13T01:50:54;18.60;99.90
15625;DHT22;7912;51.376;6.126;2023-07-13T01:53:21;18.50;99.90
15625;DHT22;7912;51.376;6.126;2023-07-13T01:55:48;18.50;99.90
15625;DHT22;7912;51.376;6.126;2023-07-13T01:58:16;18.50;99.90
15625;DHT22;7912;51.376;6.126;2023-07-13T02:00:43;18.50;99.90
15625;DHT22;7912;51.376;6.126;2023-07-13T02:03:10;18.50;99.90
15625;DHT22;7912;51.376;6.126;2023-07-13T02:05:37;18.50;99.90
15625;DHT22;7912;51.376;6.126;2023-07-13T02:08:05;18.50;99.90
15625;DHT22;7912;51.376;6.126;2023-07-13T02:10:32;18.40;99.90
15625;DHT22;7912;51.376;6.126;2023-07-13T02:12:59;18.40;99.90
15625;DHT22;7912;51.376;6.126;2023-07-13T02:15:26;18.40;99.90
15625;DHT22;7912;51.376;6.126;2023-07-13T02:17:53;18.40;99.90
15625;DHT22;7912;51.376;6.126;2023-07-13T02:20:21;18.40;99.90
15625;DHT22;7912;51.376;6.126;2023-07-13T02:22:48;18.40;99.90
15625;DHT22;7912;51.376;6.126;2023-07-13T02:25:16;18.30;99.90
15625;DHT22;7912;51.376;6.126;2023-07-13T02:27:43;18.30;99.90
15625;DHT22;7912;51.376;6.126;2023-07-13T02:30:11;18.30;99.90
15625;DHT22;7912;51.376;6.126;2023-07-13T02:32:38;18.30;99.90
15625;DHT22;7912;51.376;6.126;2023-07-13T02:35:05;18.30;99.90
15625;DHT22;7912;51.376;6.126;2023-07-13T02:37:33;18.30;99.90
15625;DHT22;7912;51.376;6.126;2023-07-13T02:40:00;18.30;99.90
15625;DHT22;7912;51.376;6.126;2023-07-13T02:42:27;18.30;99.90
15625;DHT22;7912;51.376;6.126;2023-07-13T02:44:55;18.30;99.90
15625;DHT22;7912;51.376;6.126;2023-07-13T02:47:22;18.30;99.90
15625;DHT22;7912;51.376;6.126;2023-07-13T02:49:49;18.20;99.90
15625;DHT22;7912;51.376;6.126;2023-07-13T02:52:17;18.20;99.90
15625;DHT22;7912;51.376;6.126;2023-07-13T02:54:44;18.20;99.90
15625;DHT22;7912;51.376;6.126;2023-07-13T02:57:11;18.20;99.90
15625;DHT22;7912;51.376;6.126;2023-07-13T02:59:39;18.20;99.90
15625;DHT22;7912;51.376;6.126;2023-07-13T03:02:06;18.20;99.90
15625;DHT22;7912;51.376;6.126;2023-07-13T03:04:38;18.20;99.90
15625;DHT22;7912;51.376;6.126;2023-07-13T03:07:08;18.10;99.90
15625;DHT22;7912;51.376;6.126;2023-07-13T03:09:35;18.10;99.90
15625;DHT22;7912;51.376;6.126;2023-07-13T03:12:03;18.10;99.90
15625;DHT22;7912;51.376;6.126;2023-07-13T03:14:30;18.10;99.90
15625;DHT22;7912;51.376;6.126;2023-07-13T03:16:58;18.10;99.90
15625;DHT22;7912;51.376;6.126;2023-07-13T03:19:25;18.10;99.90
15625;DHT22;7912;51.376;6.126;2023-07-13T03:21:52;18.10;99.90
15625;DHT22;7912;51.376;6.126;2023-07-13T03:24:20;18.10;99.90
15625;DHT22;7912;51.376;6.126;2023-07-13T03:26:47;18.00;99.90
15625;DHT22;7912;51.376;6.126;2023-07-13T03:29:15;18.00;99.90
15625;DHT22;7912;51.376;6.126;2023-07-13T03:31:42;18.00;99.90
15625;DHT22;7912;51.376;6.126;2023-07-13T03:34:09;18.00;99.90
15625;DHT22;7912;51.376;6.126;2023-07-13T03:36:37;18.00;99.90
15625;DHT22;7912;51.376;6.126;2023-07-13T03:39:04;18.00;99.90
15625;DHT22;7912;51.376;6.126;2023-07-13T03:41:35;18.00;99.90
15625;DHT22;7912;51.376;6.126;2023-07-13T03:44:03;18.00;99.90
15625;DHT22;7912;51.376;6.126;2023-07-13T03:46:31;18.00;99.90
15625;DHT22;7912;51.376;6.126;2023-07-13T03:49:00;18.00;99.90
15625;DHT22;7912;51.376;6.126;2023-07-13T03:51:28;18.00;99.90
15625;DHT22;7912;51.376;6.126;2023-07-13T03:53:55;17.90;99.90
15625;DHT22;7912;51.376;6.126;2023-07-13T03:56:23;18.00;99.90
15625;DHT22;7912;51.376;6.126;2023-07-13T03:58:50;17.90;99.90
15625;DHT22;7912;51.376;6.126;2023-07-13T04:01:19;17.90;99.90
15625;DHT22;7912;51.376;6.126;2023-07-13T04:03:49;17.90;99.90
15625;DHT22;7912;51.376;6.126;2023-07-13T04:06:36;17.90;99.90
15625;DHT22;7912;51.376;6.126;2023-07-13T04:09:04;17.90;99.90
15625;DHT22;7912;51.376;6.126;2023-07-13T04:11:33;17.90;99.90
15625;DHT22;7912;51.376;6.126;2023-07-13T04:14:03;17.90;99.90
15625;DHT22;7912;51.376;6.126;2023-07-13T04:16:31;17.90;99.90
15625;DHT22;7912;51.376;6.126;2023-07-13T04:18:58;17.90;99.90
15625;DHT22;7912;51.376;6.126;2023-07-13T04:21:30;17.90;99.90
15625;DHT22;7912;51.376;6.126;2023-07-13T04:23:58;17.90;99.90
15625;DHT22;7912;51.376;6.126;2023-07-13T04:26:25;17.90;99.90
15625;DHT22;7912;51.376;6.126;2023-07-13T04:28:52;17.90;99.90
15625;DHT22;7912;51.376;6.126;2023-07-13T04:31:20;18.00;99.90
15625;DHT22;7912;51.376;6.126;2023-07-13T04:33:49;18.00;99.90
15625;DHT22;7912;51.376;6.126;2023-07-13T04:36:17;18.00;99.90
15625;DHT22;7912;51.376;6.126;2023-07-13T04:38:45;18.00;99.90
15625;DHT22;7912;51.376;6.126;2023-07-13T04:41:13;18.00;99.90
15625;DHT22;7912;51.376;6.126;2023-07-13T04:43:41;18.10;99.90
15625;DHT22;7912;51.376;6.126;2023-07-13T04:46:12;18.10;99.90
15625;DHT22;7912;51.376;6.126;2023-07-13T04:48:42;18.10;99.90
15625;DHT22;7912;51.376;6.126;2023-07-13T04:51:09;18.10;99.90
15625;DHT22;7912;51.376;6.126;2023-07-13T04:53:38;18.20;99.90
15625;DHT22;7912;51.376;6.126;2023-07-13T04:56:05;18.20;99.90
15625;DHT22;7912;51.376;6.126;2023-07-13T04:58:33;18.20;99.90
15625;DHT22;7912;51.376;6.126;2023-07-13T05:01:04;18.20;99.90
15625;DHT22;7912;51.376;6.126;2023-07-13T05:03:33;18.30;99.90
15625;DHT22;7912;51.376;6.126;2023-07-13T05:06:04;18.30;99.90
15625;DHT22;7912;51.376;6.126;2023-07-13T05:08:32;18.30;99.90
15625;DHT22;7912;51.376;6.126;2023-07-13T05:11:01;18.40;99.90
15625;DHT22;7912;51.376;6.126;2023-07-13T05:13:30;18.40;99.90
15625;DHT22;7912;51.376;6.126;2023-07-13T05:15:59;18.40;99.90
15625;DHT22;7912;51.376;6.126;2023-07-13T05:18:29;18.50;99.90
15625;DHT22;7912;51.376;6.126;2023-07-13T05:21:05;18.60;99.90
15625;DHT22;7912;51.376;6.126;2023-07-13T05:23:36;18.60;99.90
15625;DHT22;7912;51.376;6.126;2023-07-13T05:26:04;18.60;99.90
15625;DHT22;7912;51.376;6.126;2023-07-13T05:28:36;18.70;99.90
15625;DHT22;7912;51.376;6.126;2023-07-13T05:31:05;18.70;99.90
15625;DHT22;7912;51.376;6.126;2023-07-13T05:33:35;18.70;99.90
15625;DHT22;7912;51.376;6.126;2023-07-13T05:36:06;18.80;99.90
15625;DHT22;7912;51.376;6.126;2023-07-13T05:38:37;18.80;99.90
15625;DHT22;7912;51.376;6.126;2023-07-13T05:41:04;18.90;99.90
15625;DHT22;7912;51.376;6.126;2023-07-13T05:43:32;19.00;99.90
15625;DHT22;7912;51.376;6.126;2023-07-13T05:46:00;19.00;99.90
15625;DHT22;7912;51.376;6.126;2023-07-13T05:48:27;19.10;99.90
15625;DHT22;7912;51.376;6.126;2023-07-13T05:50:54;19.20;99.90
15625;DHT22;7912;51.376;6.126;2023-07-13T05:53:22;19.30;99.90
15625;DHT22;7912;51.376;6.126;2023-07-13T05:55:49;19.40;99.90
15625;DHT22;7912;51.376;6.126;2023-07-13T05:58:18;19.50;99.90
15625;DHT22;7912;51.376;6.126;2023-07-13T06:00:47;19.70;99.90
15625;DHT22;7912;51.376;6.126;2023-07-13T06:03:15;19.80;99.90
15625;DHT22;7912;51.376;6.126;2023-07-13T06:05:43;20.00;99.90
15625;DHT22;7912;51.376;6.126;2023-07-13T06:08:10;20.10;99.90
15625;DHT22;7912;51.376;6.126;2023-07-13T06:10:37;20.20;99.90
15625;DHT22;7912;51.376;6.126;2023-07-13T06:13:05;20.30;99.90
15625;DHT22;7912;51.376;6.126;2023-07-13T06:15:33;20.40;99.90
15625;DHT22;7912;51.376;6.126;2023-07-13T06:18:00;20.40;99.90
15625;DHT22;7912;51.376;6.126;2023-07-13T06:20:28;20.50;99.90
15625;DHT22;7912;51.376;6.126;2023-07-13T06:22:56;20.70;99.90
15625;DHT22;7912;51.376;6.126;2023-07-13T06:25:24;20.70;99.90
15625;DHT22;7912;51.376;6.126;2023-07-13T06:27:53;20.80;99.90
15625;DHT22;7912;51.376;6.126;2023-07-13T06:33:44;21.10;99.90
15625;DHT22;7912;51.376;6.126;2023-07-13T06:36:12;21.20;99.90
15625;DHT22;7912;51.376;6.126;2023-07-13T06:38:39;21.30;99.90
15625;DHT22;7912;51.376;6.126;2023-07-13T06:41:07;21.40;99.90
15625;DHT22;7912;51.376;6.126;2023-07-13T06:43:36;21.50;99.90
15625;DHT22;7912;51.376;6.126;2023-07-13T06:46:04;21.60;99.90
15625;DHT22;7912;51.376;6.126;2023-07-13T06:48:31;21.60;99.90
15625;DHT22;7912;51.376;6.126;2023-07-13T06:50:59;21.70;99.90
15625;DHT22;7912;51.376;6.126;2023-07-13T06:53:26;21.70;99.90
15625;DHT22;7912;51.376;6.126;2023-07-13T06:55:54;21.80;99.90
15625;DHT22;7912;51.376;6.126;2023-07-13T06:58:22;21.90;99.90
15625;DHT22;7912;51.376;6.126;2023-07-13T07:04:50;22.00;99.90
15625;DHT22;7912;51.376;6.126;2023-07-13T07:07:17;22.20;99.90
15625;DHT22;7912;51.376;6.126;2023-07-13T07:09:45;22.20;99.90
15625;DHT22;7912;51.376;6.126;2023-07-13T07:12:15;22.30;99.90
15625;DHT22;7912;51.376;6.126;2023-07-13T07:14:42;22.30;99.90
15625;DHT22;7912;51.376;6.126;2023-07-13T07:17:10;22.30;99.90
15625;DHT22;7912;51.376;6.126;2023-07-13T07:19:38;22.40;99.90
15625;DHT22;7912;51.376;6.126;2023-07-13T07:22:05;22.40;99.90
15625;DHT22;7912;51.376;6.126;2023-07-13T07:24:33;22.50;99.90
15625;DHT22;7912;51.376;6.126;2023-07-13T07:27:01;22.50;99.90
15625;DHT22;7912;51.376;6.126;2023-07-13T07:29:31;22.50;99.90
15625;DHT22;7912;51.376;6.126;2023-07-13T07:32:02;22.60;99.90
15625;DHT22;7912;51.376;6.126;2023-07-13T07:34:44;22.70;99.90
15625;DHT22;7912;51.376;6.126;2023-07-13T07:37:13;22.70;99.90
15625;DHT22;7912;51.376;6.126;2023-07-13T07:39:43;22.70;99.90
15625;DHT22;7912;51.376;6.126;2023-07-13T07:42:31;22.80;99.90
15625;DHT22;7912;51.376;6.126;2023-07-13T07:44:58;22.80;99.90
15625;DHT22;7912;51.376;6.126;2023-07-13T07:47:27;22.80;99.90
15625;DHT22;7912;51.376;6.126;2023-07-13T07:49:55;22.80;99.90
15625;DHT22;7912;51.376;6.126;2023-07-13T07:52:24;22.70;99.90
15625;DHT22;7912;51.376;6.126;2023-07-13T07:54:51;22.70;99.90
15625;DHT22;7912;51.376;6.126;2023-07-13T07:57:22;22.70;99.90
15625;DHT22;7912;51.376;6.126;2023-07-13T07:59:52;22.80;99.90
15625;DHT22;7912;51.376;6.126;2023-07-13T08:02:22;22.90;99.90
15625;DHT22;7912;51.376;6.126;2023-07-13T08:04:52;23.00;99.90
15625;DHT22;7912;51.376;6.126;2023-07-13T08:07:23;23.20;99.90
15625;DHT22;7912;51.376;6.126;2023-07-13T08:09:54;23.40;99.90
15625;DHT22;7912;51.376;6.126;2023-07-13T08:12:22;23.60;99.90
15625;DHT22;7912;51.376;6.126;2023-07-13T08:14:52;23.80;99.90
15625;DHT22;7912;51.376;6.126;2023-07-13T08:17:27;24.00;99.90
15625;DHT22;7912;51.376;6.126;2023-07-13T08:19:55;24.20;99.90
15625;DHT22;7912;51.376;6.126;2023-07-13T08:22:22;24.40;99.90
15625;DHT22;7912;51.376;6.126;2023-07-13T08:24:50;24.50;99.90
15625;DHT22;7912;51.376;6.126;2023-07-13T08:27:24;24.70;99.90
15625;DHT22;7912;51.376;6.126;2023-07-13T08:29:54;24.80;99.80
15625;DHT22;7912;51.376;6.126;2023-07-13T08:32:22;24.90;99.50
15625;DHT22;7912;51.376;6.126;2023-07-13T08:38:14;25.10;98.80
15625;DHT22;7912;51.376;6.126;2023-07-13T08:40:43;25.20;98.90
15625;DHT22;7912;51.376;6.126;2023-07-13T08:43:17;25.30;98.40
15625;DHT22;7912;51.376;6.126;2023-07-13T08:45:57;25.40;98.10
15625;DHT22;7912;51.376;6.126;2023-07-13T08:49:33;25.40;97.70
15625;DHT22;7912;51.376;6.126;2023-07-13T08:52:17;25.50;97.70
15625;DHT22;7912;51.376;6.126;2023-07-13T08:58:25;25.60;97.40
15625;DHT22;7912;51.376;6.126;2023-07-13T09:01:15;25.70;97.40
15625;DHT22;7912;51.376;6.126;2023-07-13T09:09:33;26.10;96.00
15625;DHT22;7912;51.376;6.126;2023-07-13T09:15:03;26.20;95.10
15625;DHT22;7912;51.376;6.126;2023-07-13T09:17:48;26.40;95.60
15625;DHT22;7912;51.376;6.126;2023-07-13T09:20:35;26.60;95.00
15625;DHT22;7912;51.376;6.126;2023-07-13T09:23:17;26.90;94.60
15625;DHT22;7912;51.376;6.126;2023-07-13T09:25:53;27.20;93.70
15625;DHT22;7912;51.376;6.126;2023-07-13T09:28:28;27.30;93.40
15625;DHT22;7912;51.376;6.126;2023-07-13T09:31:47;27.50;92.50
15625;DHT22;7912;51.376;6.126;2023-07-13T09:34:10;27.60;91.90
15625;DHT22;7912;51.376;6.126;2023-07-13T09:36:39;27.70;91.50
15625;DHT22;7912;51.376;6.126;2023-07-13T09:39:21;27.80;91.80
15625;DHT22;7912;51.376;6.126;2023-07-13T09:44:53;27.80;91.50
15625;DHT22;7912;51.376;6.126;2023-07-13T09:47:30;27.90;91.50
15625;DHT22;7912;51.376;6.126;2023-07-13T09:50:02;28.10;91.30
15625;DHT22;7912;51.376;6.126;2023-07-13T09:57:55;28.90;89.30
15625;DHT22;7912;51.376;6.126;2023-07-13T10:00:29;29.00;88.30
15625;DHT22;7912;51.376;6.126;2023-07-13T10:03:03;29.10;85.40
15625;DHT22;7912;51.376;6.126;2023-07-13T10:05:52;29.10;85.60
15625;DHT22;7912;51.376;6.126;2023-07-13T10:08:24;29.10;85.50
15625;DHT22;7912;51.376;6.126;2023-07-13T10:11:00;29.00;84.80
15625;DHT22;7912;51.376;6.126;2023-07-13T10:16:26;29.10;84.20
15625;DHT22;7912;51.376;6.126;2023-07-13T10:19:11;29.30;84.20
15625;DHT22;7912;51.376;6.126;2023-07-13T10:21:52;29.40;83.40
15625;DHT22;7912;51.376;6.126;2023-07-13T10:24:26;29.40;81.90
15625;DHT22;7912;51.376;6.126;2023-07-13T10:27:05;29.50;81.90
15625;DHT22;7912;51.376;6.126;2023-07-13T10:30:45;29.60;81.70
15625;DHT22;7912;51.376;6.126;2023-07-13T10:33:03;29.70;81.20
15625;DHT22;7912;51.376;6.126;2023-07-13T10:35:40;29.90;79.40
15625;DHT22;7912;51.376;6.126;2023-07-13T10:38:19;30.00;80.00
15625;DHT22;7912;51.376;6.126;2023-07-13T10:41:11;30.10;79.00
15625;DHT22;7912;51.376;6.126;2023-07-13T10:43:47;30.20;77.40
15625;DHT22;7912;51.376;6.126;2023-07-13T10:46:20;30.30;78.60
15625;DHT22;7912;51.376;6.126;2023-07-13T10:48:54;30.50;78.20
15625;DHT22;7912;51.376;6.126;2023-07-13T10:51:25;30.60;77.00
15625;DHT22;7912;51.376;6.126;2023-07-13T10:54:17;30.70;75.50
15625;DHT22;7912;51.376;6.126;2023-07-13T10:59:39;30.70;72.20
15625;DHT22;7912;51.376;6.126;2023-07-13T11:02:26;30.60;72.90
15625;DHT22;7912;51.376;6.126;2023-07-13T11:04:56;30.50;72.40
15625;DHT22;7912;51.376;6.126;2023-07-13T11:07:30;30.40;73.10
15625;DHT22;7912;51.376;6.126;2023-07-13T11:10:04;30.50;72.60
15625;DHT22;7912;51.376;6.126;2023-07-13T11:15:30;30.50;71.50
15625;DHT22;7912;51.376;6.126;2023-07-13T11:18:21;30.50;71.20
15625;DHT22;7912;51.376;6.126;2023-07-13T11:20:52;30.50;71.10
15625;DHT22;7912;51.376;6.126;2023-07-13T11:24:17;30.50;72.10
15625;DHT22;7912;51.376;6.126;2023-07-13T11:31:59;30.80;71.20
15625;DHT22;7912;51.376;6.126;2023-07-13T11:34:36;30.90;71.60
15625;DHT22;7912;51.376;6.126;2023-07-13T11:37:12;30.90;70.00
15625;DHT22;7912;51.376;6.126;2023-07-13T11:39:44;31.00;69.40
15625;DHT22;7912;51.376;6.126;2023-07-13T11:42:16;31.20;69.50
15625;DHT22;7912;51.376;6.126;2023-07-13T11:44:50;31.30;68.10
15625;DHT22;7912;51.376;6.126;2023-07-13T11:47:40;31.50;67.50
15625;DHT22;7912;51.376;6.126;2023-07-13T11:50:18;31.50;65.00
15625;DHT22;7912;51.376;6.126;2023-07-13T11:52:49;31.50;64.60
15625;DHT22;7912;51.376;6.126;2023-07-13T11:55:22;31.40;65.80
15625;DHT22;7912;51.376;6.126;2023-07-13T11:57:56;31.20;68.20
15625;DHT22;7912;51.376;6.126;2023-07-13T12:00:29;30.90;70.50
15625;DHT22;7912;51.376;6.126;2023-07-13T12:03:01;30.50;71.50
15625;DHT22;7912;51.376;6.126;2023-07-13T12:05:32;30.00;74.10
15625;DHT22;7912;51.376;6.126;2023-07-13T12:07:59;29.60;79.50
15625;DHT22;7912;51.376;6.126;2023-07-13T12:10:59;29.20;83.30
15625;DHT22;7912;51.376;6.126;2023-07-13T12:13:36;29.10;85.80
15625;DHT22;7912;51.376;6.126;2023-07-13T12:16:30;29.10;83.60
15625;DHT22;7912;51.376;6.126;2023-07-13T12:19:01;29.30;82.70
15625;DHT22;7912;51.376;6.126;2023-07-13T12:21:37;29.50;80.30
15625;DHT22;7912;51.376;6.126;2023-07-13T12:24:17;29.80;76.50
15625;DHT22;7912;51.376;6.126;2023-07-13T12:26:58;30.00;75.70
15625;DHT22;7912;51.376;6.126;2023-07-13T12:29:32;30.10;74.50
15625;DHT22;7912;51.376;6.126;2023-07-13T12:32:00;30.30;72.70
15625;DHT22;7912;51.376;6.126;2023-07-13T12:34:27;30.40;72.80
15625;DHT22;7912;51.376;6.126;2023-07-13T12:36:58;30.60;72.80
15625;DHT22;7912;51.376;6.126;2023-07-13T12:39:34;30.80;71.00
15625;DHT22;7912;51.376;6.126;2023-07-13T12:42:27;30.90;70.80
15625;DHT22;7912;51.376;6.126;2023-07-13T12:45:09;31.10;70.20
15625;DHT22;7912;51.376;6.126;2023-07-13T12:47:49;31.20;70.30
15625;DHT22;7912;51.376;6.126;2023-07-13T12:50:27;31.40;69.10
15625;DHT22;7912;51.376;6.126;2023-07-13T12:53:02;31.60;68.10
15625;DHT22;7912;51.376;6.126;2023-07-13T12:55:42;31.80;65.90
15625;DHT22;7912;51.376;6.126;2023-07-13T12:58:27;32.00;65.70
15625;DHT22;7912;51.376;6.126;2023-07-13T13:01:05;32.20;64.20
15625;DHT22;7912;51.376;6.126;2023-07-13T13:03:48;32.30;64.40
15625;DHT22;7912;51.376;6.126;2023-07-13T13:06:21;32.30;64.00
15625;DHT22;7912;51.376;6.126;2023-07-13T13:08:58;32.40;63.20
15625;DHT22;7912;51.376;6.126;2023-07-13T13:11:28;32.30;62.30
15625;DHT22;7912;51.376;6.126;2023-07-13T13:13:57;32.30;61.80
15625;DHT22;7912;51.376;6.126;2023-07-13T13:16:37;32.20;61.40
15625;DHT22;7912;51.376;6.126;2023-07-13T13:19:25;32.10;60.80
15625;DHT22;7912;51.376;6.126;2023-07-13T13:21:56;31.90;62.10
15625;DHT22;7912;51.376;6.126;2023-07-13T13:24:27;31.90;62.10
15625;DHT22;7912;51.376;6.126;2023-07-13T13:26:55;31.80;62.90
15625;DHT22;7912;51.376;6.126;2023-07-13T13:29:25;31.80;62.80
15625;DHT22;7912;51.376;6.126;2023-07-13T13:31:55;31.90;62.60
15625;DHT22;7912;51.376;6.126;2023-07-13T13:34:25;32.00;61.60
15625;DHT22;7912;51.376;6.126;2023-07-13T13:36:54;32.00;61.30
15625;DHT22;7912;51.376;6.126;2023-07-13T13:39:36;32.00;60.90
15625;DHT22;7912;51.376;6.126;2023-07-13T13:42:20;31.80;60.10
15625;DHT22;7912;51.376;6.126;2023-07-13T13:44:53;31.80;60.90
15625;DHT22;7912;51.376;6.126;2023-07-13T13:47:31;31.60;61.00
15625;DHT22;7912;51.376;6.126;2023-07-13T13:50:29;31.40;60.80
15625;DHT22;7912;51.376;6.126;2023-07-13T13:52:57;31.20;61.30
15625;DHT22;7912;51.376;6.126;2023-07-13T13:55:24;31.10;61.90
15625;DHT22;7912;51.376;6.126;2023-07-13T13:57:52;30.90;62.00
15625;DHT22;7912;51.376;6.126;2023-07-13T14:00:21;30.80;62.10
15625;DHT22;7912;51.376;6.126;2023-07-13T14:02:48;30.60;61.90
15625;DHT22;7912;51.376;6.126;2023-07-13T14:05:22;30.40;61.90
15625;DHT22;7912;51.376;6.126;2023-07-13T14:07:54;30.20;62.70
15625;DHT22;7912;51.376;6.126;2023-07-13T14:10:23;30.00;62.80
15625;DHT22;7912;51.376;6.126;2023-07-13T14:12:56;29.70;64.40
15625;DHT22;7912;51.376;6.126;2023-07-13T14:15:27;29.40;67.10
15625;DHT22;7912;51.376;6.126;2023-07-13T14:17:57;29.00;71.10
15625;DHT22;7912;51.376;6.126;2023-07-13T14:20:25;28.50;74.40
15625;DHT22;7912;51.376;6.126;2023-07-13T14:22:53;27.90;77.10
15625;DHT22;7912;51.376;6.126;2023-07-13T14:25:24;27.40;79.20
15625;DHT22;7912;51.376;6.126;2023-07-13T14:28:23;26.80;80.50
15625;DHT22;7912;51.376;6.126;2023-07-13T14:30:53;26.30;84.50
15625;DHT22;7912;51.376;6.126;2023-07-13T14:33:23;25.80;86.30
15625;DHT22;7912;51.376;6.126;2023-07-13T14:35:51;25.50;88.00
15625;DHT22;7912;51.376;6.126;2023-07-13T14:38:22;25.20;90.10
15625;DHT22;7912;51.376;6.126;2023-07-13T14:40:49;25.00;91.20
15625;DHT22;7912;51.376;6.126;2023-07-13T14:43:17;24.80;92.10
15625;DHT22;7912;51.376;6.126;2023-07-13T14:45:48;24.60;92.90
15625;DHT22;7912;51.376;6.126;2023-07-13T14:48:20;24.50;93.70
15625;DHT22;7912;51.376;6.126;2023-07-13T14:50:55;24.40;93.50
15625;DHT22;7912;51.376;6.126;2023-07-13T14:53:25;24.30;94.10
15625;DHT22;7912;51.376;6.126;2023-07-13T14:55:56;24.20;93.70
15625;DHT22;7912;51.376;6.126;2023-07-13T14:58:25;24.20;94.10
15625;DHT22;7912;51.376;6.126;2023-07-13T15:00:55;24.10;94.30
15625;DHT22;7912;51.376;6.126;2023-07-13T15:03:28;24.10;95.00
15625;DHT22;7912;51.376;6.126;2023-07-13T15:05:59;24.00;95.20
15625;DHT22;7912;51.376;6.126;2023-07-13T15:08:32;24.00;95.60
15625;DHT22;7912;51.376;6.126;2023-07-13T15:11:03;24.00;95.70
15625;DHT22;7912;51.376;6.126;2023-07-13T15:13:31;24.00;95.70
15625;DHT22;7912;51.376;6.126;2023-07-13T15:15:59;24.00;95.80
15625;DHT22;7912;51.376;6.126;2023-07-13T15:18:28;24.10;95.70
15625;DHT22;7912;51.376;6.126;2023-07-13T15:20:56;24.00;95.60
15625;DHT22;7912;51.376;6.126;2023-07-13T15:23:25;24.00;95.30
15625;DHT22;7912;51.376;6.126;2023-07-13T15:25:53;24.00;95.30
15625;DHT22;7912;51.376;6.126;2023-07-13T15:28:20;24.00;95.40
15625;DHT22;7912;51.376;6.126;2023-07-13T15:30:48;24.00;95.40
15625;DHT22;7912;51.376;6.126;2023-07-13T15:33:27;24.00;95.50
15625;DHT22;7912;51.376;6.126;2023-07-13T15:35:56;24.00;95.60
15625;DHT22;7912;51.376;6.126;2023-07-13T15:38:29;24.10;95.60
15625;DHT22;7912;51.376;6.126;2023-07-13T15:40:58;24.20;95.70
15625;DHT22;7912;51.376;6.126;2023-07-13T15:43:26;24.20;95.90
15625;DHT22;7912;51.376;6.126;2023-07-13T15:45:53;24.30;95.70
15625;DHT22;7912;51.376;6.126;2023-07-13T15:48:23;24.30;95.80
15625;DHT22;7912;51.376;6.126;2023-07-13T15:50:55;24.40;95.20
15625;DHT22;7912;51.376;6.126;2023-07-13T15:53:35;24.40;95.00
15625;DHT22;7912;51.376;6.126;2023-07-13T15:56:20;24.40;94.40
15625;DHT22;7912;51.376;6.126;2023-07-13T15:58:53;24.50;94.10
15625;DHT22;7912;51.376;6.126;2023-07-13T16:01:21;24.60;94.20
15625;DHT22;7912;51.376;6.126;2023-07-13T16:03:52;24.60;93.60
15625;DHT22;7912;51.376;6.126;2023-07-13T16:06:26;24.60;93.50
15625;DHT22;7912;51.376;6.126;2023-07-13T16:08:56;24.60;92.90
15625;DHT22;7912;51.376;6.126;2023-07-13T16:11:26;24.60;92.70
15625;DHT22;7912;51.376;6.126;2023-07-13T16:13:59;24.70;92.70
15625;DHT22;7912;51.376;6.126;2023-07-13T16:16:29;24.80;92.70
15625;DHT22;7912;51.376;6.126;2023-07-13T16:19:01;24.80;92.30
15625;DHT22;7912;51.376;6.126;2023-07-13T16:21:37;24.80;92.60
15625;DHT22;7912;51.376;6.126;2023-07-13T16:27:22;25.10;92.30
15625;DHT22;7912;51.376;6.126;2023-07-13T16:29:50;25.30;92.20
15625;DHT22;7912;51.376;6.126;2023-07-13T16:32:18;25.50;92.40
15625;DHT22;7912;51.376;6.126;2023-07-13T16:34:45;25.70;91.90
15625;DHT22;7912;51.376;6.126;2023-07-13T16:37:21;26.00;91.60
15625;DHT22;7912;51.376;6.126;2023-07-13T16:39:56;26.20;91.40
15625;DHT22;7912;51.376;6.126;2023-07-13T16:42:26;26.40;91.00
15625;DHT22;7912;51.376;6.126;2023-07-13T16:44:53;26.70;90.80
15625;DHT22;7912;51.376;6.126;2023-07-13T16:47:22;27.00;90.60
15625;DHT22;7912;51.376;6.126;2023-07-13T16:49:50;27.30;89.70
15625;DHT22;7912;51.376;6.126;2023-07-13T16:52:19;27.70;88.80
15625;DHT22;7912;51.376;6.126;2023-07-13T16:54:47;28.00;87.70
15625;DHT22;7912;51.376;6.126;2023-07-13T16:57:21;28.30;86.10
15625;DHT22;7912;51.376;6.126;2023-07-13T16:59:53;28.60;83.80
15625;DHT22;7912;51.376;6.126;2023-07-13T17:02:30;28.80;82.50
15625;DHT22;7912;51.376;6.126;2023-07-13T17:05:01;29.00;80.10
15625;DHT22;7912;51.376;6.126;2023-07-13T17:07:29;29.20;79.70
15625;DHT22;7912;51.376;6.126;2023-07-13T17:09:58;29.30;78.80
15625;DHT22;7912;51.376;6.126;2023-07-13T17:12:26;29.40;77.60
15625;DHT22;7912;51.376;6.126;2023-07-13T17:14:54;29.40;77.50
15625;DHT22;7912;51.376;6.126;2023-07-13T17:17:34;29.30;76.00